Gaschem Bremen — DGLB2 — position and weather

sailwx.info

Track history (hours):
 
Tides and Currents Weather Stations Pressure Air Temp Water Temp Dewpoint Dewpoint Depression Visibility Wind Speed Wind Dir Waves Ship Positions

Gaschem Bremen

Last reported at 2018-Jun-19 17:45 UTC. Time now 2018-Jun-20 02:07 UTC.
Position N 49°34' W 000°07'.

Length 173 m; draft 9.9 m.

Type: Ship. MMSI: 218859000.

Date/timePositionNaut miles runAvg speedWind from/ knotsBaromVisibWave heightAir tempDewpointWater temp
2018-Jun-19 17:45N 49°34' W 000°07'0 0.0
2018-Jun-19 17:21N 49°34' W 000°07'0 0.0
2018-Jun-19 11:51N 49°34' W 000°07'4 1.4
2018-Jun-19 09:00N 49°30' W 000°06'4 1.0 240 / 111026.410.8 18.514.614.0
2018-Jun-19 04:48N 49°34' W 000°07'0 0.0
2018-Jun-19 00:30N 49°34' W 000°07'4 0.6
2018-Jun-18 18:00N 49°30' W 000°06'4 0.3 270 / 12 17.0
2018-Jun-18 04:24N 49°34' W 000°07'0 0.1
2018-Jun-18 03:09N 49°34' W 000°07'0 0.1
2018-Jun-18 02:57N 49°34' W 000°07'0 0.0
2018-Jun-18 02:27N 49°34' W 000°07'0 0.0
2018-Jun-18 02:00N 49°34' W 000°07'0 0.0
2018-Jun-18 01:30N 49°34' W 000°07'0 0.0
2018-Jun-18 01:00N 49°34' W 000°07'0 0.5
2018-Jun-18 00:31N 49°34' W 000°07'5 9.3
2018-Jun-18 00:01N 49°34' W 000°14'613.0
2018-Jun-17 23:31N 49°37' W 000°23'611.7
2018-Jun-17 23:01N 49°43' W 000°25'611.6
2018-Jun-17 22:30N 49°49' W 000°24'611.6
2018-Jun-17 21:59N 49°55' W 000°24'511.2
2018-Jun-17 21:30N 49°60' W 000°21'611.5
2018-Jun-17 21:00N 50°05' W 000°18'812.0
2018-Jun-17 20:21N 50°13' W 000°15'2911.9
2018-Jun-17 17:57N 50°32' E 000°19'613.2
2018-Jun-17 17:30N 50°34' E 000°28'612.8
2018-Jun-17 17:01N 50°36' E 000°37'612.3
2018-Jun-17 16:30N 50°39' E 000°45'611.8
2018-Jun-17 16:01N 50°43' E 000°52'611.0
2018-Jun-17 15:30N 50°46' E 000°59'510.4
2018-Jun-17 14:59N 50°50' E 001°06'5 9.9
2018-Jun-17 14:30N 50°52' E 001°12'5 9.4
2018-Jun-17 14:01N 50°55' E 001°18'5 9.2
2018-Jun-17 13:31N 50°59' E 001°23'510.1
2018-Jun-17 13:01N 51°02' E 001°29'611.2
2018-Jun-17 12:30N 51°06' E 001°35'612.1
2018-Jun-17 12:01N 51°10' E 001°42'294.8
2018-Jun-17 12:00N 51°12' E 001°42'511.2 240 / 241016.410.8 17.410.513.0
2018-Jun-17 11:30N 51°16' E 001°48'714.0
2018-Jun-17 11:00N 51°22' E 001°54'714.4
2018-Jun-17 10:30N 51°28' E 001°60'714.0
2018-Jun-17 10:00N 51°34' E 002°07'713.7
2018-Jun-17 09:30N 51°39' E 002°14'713.4
2018-Jun-17 09:00N 51°44' E 002°21'3322.3
2018-Jun-17 09:00N 51°42' E 002°18'12610.5 260 / 161016.110.8 16.210.9
2018-Jun-16 21:00N 53°48' E 002°18'7012.1 230 / 91009.910.8 13.811.8
2018-Jun-16 15:15N 54°31' E 000°44'311.4
2018-Jun-16 15:00N 54°33' E 000°40'1411.1
2018-Jun-16 13:42N 54°42' E 000°22'211.0
2018-Jun-16 13:30N 54°44' E 000°19'610.9
2018-Jun-16 12:59N 54°48' E 000°12'511.0
2018-Jun-16 12:30N 54°51' E 000°05'510.9
2018-Jun-16 12:00N 54°55' W 000°02'3203.8
2018-Jun-16 12:00N 54°54' W 000°06'4111.2 180 / 151010.310.8 15.5 8.712.0
2018-Jun-16 08:17N 55°24' W 000°55'412.3
2018-Jun-16 07:58N 55°27' W 001°00'612.5
2018-Jun-16 07:30N 55°31' W 001°08'612.6
2018-Jun-16 07:00N 55°35' W 001°16'612.9
2018-Jun-16 06:30N 55°40' W 001°24'713.1
2018-Jun-16 06:00N 55°44' W 001°32'713.0
2018-Jun-16 05:30N 55°49' W 001°41'713.1
2018-Jun-16 05:00N 55°53' W 001°49'713.1
2018-Jun-16 04:30N 55°58' W 001°58'612.9
2018-Jun-16 04:00N 56°01' W 002°08'812.9
2018-Jun-16 03:24N 56°04' W 002°20'512.6
2018-Jun-16 03:00N 56°06' W 002°29'611.9
2018-Jun-16 02:30N 56°07' W 002°39'611.6
2018-Jun-16 02:00N 56°06' W 002°49'611.6
2018-Jun-16 01:30N 56°03' W 002°59'611.0
2018-Jun-16 01:00N 56°03' W 003°08'5 8.2
2018-Jun-16 00:27N 56°03' W 003°17'1 0.1
2018-Jun-15 01:56N 56°02' W 003°19'1 2.3
2018-Jun-15 01:30N 56°02' W 003°17'510.3
2018-Jun-15 01:00N 56°03' W 003°09'4 8.6
2018-Jun-15 00:30N 56°07' W 003°03'1 1.8
2018-Jun-14 23:58N 56°08' W 003°04'0 0.2
2018-Jun-14 23:28N 56°08' W 003°03'0 0.0
2018-Jun-14 22:58N 56°08' W 003°03'0 0.0
2018-Jun-14 22:31N 56°08' W 003°03'0 0.0
2018-Jun-14 21:58N 56°08' W 003°03'0 0.0
2018-Jun-14 21:28N 56°08' W 003°03'0 0.1
2018-Jun-14 20:58N 56°08' W 003°03'0 0.0
2018-Jun-14 20:28N 56°08' W 003°03'0 0.0
2018-Jun-14 19:58N 56°08' W 003°03'0 0.0
2018-Jun-14 19:28N 56°08' W 003°03'0 0.0
2018-Jun-14 19:01N 56°08' W 003°03'0 0.0
2018-Jun-14 18:28N 56°08' W 003°03'0 0.0
2018-Jun-14 17:58N 56°08' W 003°03'0 0.1
2018-Jun-14 17:28N 56°08' W 003°03'0 0.1
2018-Jun-14 16:58N 56°08' W 003°03'0 0.1
2018-Jun-14 16:31N 56°08' W 003°03'0 0.0
2018-Jun-14 15:58N 56°08' W 003°03'0 0.1
2018-Jun-14 15:28N 56°08' W 003°03'0 0.1
2018-Jun-14 14:58N 56°08' W 003°03'0 0.1
2018-Jun-14 14:28N 56°08' W 003°03'0 0.0
2018-Jun-14 13:58N 56°08' W 003°03'0 0.0
2018-Jun-14 13:28N 56°08' W 003°03'0 0.1
2018-Jun-14 12:58N 56°08' W 003°03'0 0.2
2018-Jun-14 12:28N 56°08' W 003°03'0 0.1
2018-Jun-14 11:58N 56°08' W 003°03'0 0.2
2018-Jun-14 11:28N 56°08' W 003°03'0 0.0
2018-Jun-14 10:58N 56°08' W 003°03'0 0.0
2018-Jun-14 10:28N 56°08' W 003°03'0 0.0
2018-Jun-14 09:58N 56°08' W 003°03'0 0.0
2018-Jun-14 09:28N 56°08' W 003°03'0 0.0
2018-Jun-14 08:58N 56°08' W 003°03'0 0.1
2018-Jun-14 08:25N 56°08' W 003°03'0 0.0
2018-Jun-14 07:58N 56°08' W 003°03'0 0.1
2018-Jun-14 07:28N 56°08' W 003°04'0 0.0
2018-Jun-14 06:58N 56°08' W 003°04'0 0.0
2018-Jun-14 06:28N 56°08' W 003°04'0 0.0
2018-Jun-14 05:58N 56°08' W 003°04'0 0.0
2018-Jun-14 05:28N 56°08' W 003°04'0 0.0
2018-Jun-14 04:58N 56°08' W 003°04'0 0.0
2018-Jun-14 04:28N 56°08' W 003°04'0 0.0
2018-Jun-14 03:58N 56°08' W 003°04'0 0.0
2018-Jun-14 03:28N 56°08' W 003°04'0 0.1
2018-Jun-14 02:58N 56°08' W 003°04'0 0.1
2018-Jun-14 02:28N 56°08' W 003°04'0 0.1
2018-Jun-14 01:58N 56°08' W 003°03'0 0.0
2018-Jun-14 01:28N 56°08' W 003°03'0 0.0
2018-Jun-14 00:58N 56°08' W 003°04'0 0.0
2018-Jun-14 00:28N 56°08' W 003°04'0 0.0
2018-Jun-13 23:58N 56°08' W 003°04'0 0.0
2018-Jun-13 23:28N 56°08' W 003°04'0 0.0
2018-Jun-13 22:58N 56°08' W 003°04'0 0.0
2018-Jun-13 22:28N 56°08' W 003°04'0 0.0
2018-Jun-13 21:58N 56°08' W 003°04'0 0.0
2018-Jun-13 21:28N 56°08' W 003°04'0 0.0
2018-Jun-13 20:58N 56°08' W 003°04'0 0.0
2018-Jun-13 20:28N 56°08' W 003°04'0 0.0
2018-Jun-13 20:01N 56°08' W 003°04'0 0.0
2018-Jun-13 19:28N 56°08' W 003°03'0 0.0
2018-Jun-13 18:58N 56°08' W 003°03'0 0.1
2018-Jun-13 18:28N 56°08' W 003°04'0 0.0
2018-Jun-13 17:58N 56°08' W 003°04'0 0.0
2018-Jun-13 17:31N 56°08' W 003°04'0 0.0
2018-Jun-13 17:01N 56°08' W 003°04'0 0.0
2018-Jun-13 16:28N 56°08' W 003°04'0 0.0
2018-Jun-13 15:58N 56°08' W 003°04'0 0.0
2018-Jun-13 15:28N 56°08' W 003°04'0 0.0
2018-Jun-13 14:58N 56°08' W 003°04'0 0.0
2018-Jun-13 14:28N 56°08' W 003°04'0 0.0
2018-Jun-13 13:58N 56°08' W 003°04'0 0.0
2018-Jun-13 13:28N 56°08' W 003°04'0 0.1
2018-Jun-13 13:01N 56°08' W 003°03'0 0.0
2018-Jun-13 12:28N 56°08' W 003°03'0 0.0
2018-Jun-13 11:58N 56°08' W 003°03'0 0.0
2018-Jun-13 11:28N 56°08' W 003°03'0 0.1
2018-Jun-13 10:58N 56°08' W 003°03'0 0.0
2018-Jun-13 10:28N 56°08' W 003°03'0 0.8
2018-Jun-13 10:00N 56°08' W 003°03'611.3
2018-Jun-13 09:30N 56°07' W 002°53'612.6
2018-Jun-13 09:00N 56°07' W 002°41'612.6
2018-Jun-13 08:30N 56°07' W 002°30'612.5
2018-Jun-13 08:00N 56°04' W 002°20'815.0
2018-Jun-13 07:30N 56°01' W 002°08'815.3
2018-Jun-13 07:00N 55°57' W 001°56'713.8
2018-Jun-13 06:30N 55°52' W 001°47'713.5
2018-Jun-13 06:00N 55°48' W 001°39'713.3
2018-Jun-13 05:30N 55°43' W 001°30'612.8
2018-Jun-13 05:00N 55°38' W 001°22'612.7
2018-Jun-13 04:30N 55°34' W 001°14'612.8
2018-Jun-13 04:00N 55°29' W 001°06'612.5
2018-Jun-13 03:30N 55°25' W 000°58'3712.3
2018-Jun-13 00:29N 54°60' W 000°10'612.6
2018-Jun-13 00:00N 54°56' W 000°03'613.0
2018-Jun-12 23:30N 54°51' E 000°05'713.2
2018-Jun-12 23:00N 54°47' E 000°13'713.2
2018-Jun-12 22:30N 54°42' E 000°22'713.2
2018-Jun-12 21:59N 54°37' E 000°31'613.3
2018-Jun-12 21:30N 54°33' E 000°39'813.2
2018-Jun-12 20:53N 54°28' E 000°49'14210.7
2018-Jun-12 07:36N 52°22' E 002°40'410.8
2018-Jun-12 07:12N 52°18' E 002°40'410.8
2018-Jun-12 06:49N 52°14' E 002°41'410.8
2018-Jun-12 06:26N 52°10' E 002°40'510.9
2018-Jun-12 06:00N 52°05' E 002°40'511.2
2018-Jun-12 05:30N 51°59' E 002°40'611.6
2018-Jun-12 05:00N 51°54' E 002°41'611.1
2018-Jun-12 04:30N 51°49' E 002°37'611.8
2018-Jun-12 04:01N 51°44' E 002°31'612.0
2018-Jun-12 03:30N 51°39' E 002°26'612.2
2018-Jun-12 03:00N 51°34' E 002°20'612.5
2018-Jun-12 02:31N 51°29' E 002°14'612.8
2018-Jun-12 02:00N 51°23' E 002°10'612.9
2018-Jun-12 01:30N 51°17' E 002°07'612.8
2018-Jun-12 01:01N 51°12' E 002°01'713.4
2018-Jun-12 00:30N 51°09' E 001°51'713.7
2018-Jun-12 00:00N 51°04' E 001°43'714.5
2018-Jun-11 23:31N 50°59' E 001°35'714.6
2018-Jun-11 23:01N 50°53' E 001°28'714.3
2018-Jun-11 22:30N 50°47' E 001°24'713.4
2018-Jun-11 22:00N 50°41' E 001°19'612.9
2018-Jun-11 21:30N 50°36' E 001°12'612.4
2018-Jun-11 21:00N 50°32' E 001°05'612.1
2018-Jun-11 20:30N 50°28' E 000°58'612.2
2018-Jun-11 20:00N 50°26' E 000°49'612.4
2018-Jun-11 19:30N 50°24' E 000°39'612.7
2018-Jun-11 19:00N 50°22' E 000°30'713.0
2018-Jun-11 18:29N 50°20' E 000°20'613.3
2018-Jun-11 18:00N 50°19' E 000°10'713.2
2018-Jun-11 17:30N 50°17' E 000°00'613.1
2018-Jun-11 17:00N 50°15' W 000°10'713.1
2018-Jun-11 16:30N 50°13' W 000°20'613.0
2018-Jun-11 16:00N 50°12' W 000°29'612.6
2018-Jun-11 15:30N 50°10' W 000°39'612.2
2018-Jun-11 15:00N 50°08' W 000°48'611.7
2018-Jun-11 14:30N 50°06' W 000°57'511.1
2018-Jun-11 14:00N 50°06' W 001°05'510.4
2018-Jun-11 13:30N 50°05' W 001°13'5 9.9
2018-Jun-11 13:00N 50°04' W 001°21'5 9.4
2018-Jun-11 12:30N 50°03' W 001°28'5 9.3
2018-Jun-11 12:01N 50°02' W 001°35'5 9.2
2018-Jun-11 11:30N 50°00' W 001°42'4 8.9
2018-Jun-11 11:00N 49°59' W 001°49'5 9.4
2018-Jun-11 10:30N 49°58' W 001°56'5 9.9
2018-Jun-11 10:00N 49°57' W 002°03'510.6
2018-Jun-11 09:30N 49°55' W 002°11'711.4
2018-Jun-11 08:53N 49°54' W 002°22'512.1
2018-Jun-11 08:27N 49°52' W 002°30'912.7
2018-Jun-11 07:43N 49°50' W 002°44'313.0
2018-Jun-11 07:30N 49°49' W 002°48'613.0
2018-Jun-11 07:00N 49°47' W 002°57'612.8
2018-Jun-11 06:30N 49°44' W 003°06'713.1
2018-Jun-11 06:00N 49°41' W 003°15'1113.1
2018-Jun-11 05:10N 49°36' W 003°30'313.1
2018-Jun-11 04:58N 49°35' W 003°33'7213.3
2018-Jun-10 23:34N 48°59' W 005°09'112.9
2018-Jun-10 23:30N 48°59' W 005°10'810.7
2018-Jun-10 22:43N 48°55' W 005°21'2 8.6
2018-Jun-10 22:27N 48°53' W 005°24'710.2
2018-Jun-10 21:49N 48°49' W 005°32'412.2
2018-Jun-10 21:28N 48°47' W 005°37'1124.1
2018-Jun-10 21:00N 48°36' W 005°42'422.3 060 / 101012.5 0.3 14.513.2
2018-Jun-10 20:48N 48°40' W 005°43'512.3
2018-Jun-10 20:25N 48°36' W 005°47'511.5
2018-Jun-10 19:59N 48°32' W 005°50'31313.0
2018-Jun-09 20:00N 43°54' W 009°18'   360 / 141008.0 0.5 16.415.4
Track history (hours):
 
Tides and Currents Weather Stations Pressure Air Temp Water Temp Dewpoint Dewpoint Depression Visibility Wind Speed Wind Dir Waves Ship Positions

Gaschem Bremen

Last reported at 2018-Jun-19 17:45 UTC. Time now 2018-Jun-20 02:07 UTC.
Position N 49°34' W 000°07'.

Length 173 m; draft 9.9 m.

Type: Ship. MMSI: 218859000.

Date/timePositionNaut miles runAvg speedWind from/ knotsBaromVisibWave heightAir tempDewpointWater temp
2018-Jun-19 17:45N 49°34' W 000°07'0 0.0
2018-Jun-19 17:21N 49°34' W 000°07'0 0.0
2018-Jun-19 11:51N 49°34' W 000°07'4 1.4
2018-Jun-19 09:00N 49°30' W 000°06'4 1.0 240 / 111026.410.8 18.514.614.0
2018-Jun-19 04:48N 49°34' W 000°07'0 0.0
2018-Jun-19 00:30N 49°34' W 000°07'4 0.6
2018-Jun-18 18:00N 49°30' W 000°06'4 0.3 270 / 12 17.0
2018-Jun-18 04:24N 49°34' W 000°07'0 0.1
2018-Jun-18 03:09N 49°34' W 000°07'0 0.1
2018-Jun-18 02:57N 49°34' W 000°07'0 0.0
2018-Jun-18 02:27N 49°34' W 000°07'0 0.0
2018-Jun-18 02:00N 49°34' W 000°07'0 0.0
2018-Jun-18 01:30N 49°34' W 000°07'0 0.0
2018-Jun-18 01:00N 49°34' W 000°07'0 0.5
2018-Jun-18 00:31N 49°34' W 000°07'5 9.3
2018-Jun-18 00:01N 49°34' W 000°14'613.0
2018-Jun-17 23:31N 49°37' W 000°23'611.7
2018-Jun-17 23:01N 49°43' W 000°25'611.6
2018-Jun-17 22:30N 49°49' W 000°24'611.6
2018-Jun-17 21:59N 49°55' W 000°24'511.2
2018-Jun-17 21:30N 49°60' W 000°21'611.5
2018-Jun-17 21:00N 50°05' W 000°18'812.0
2018-Jun-17 20:21N 50°13' W 000°15'2911.9
2018-Jun-17 17:57N 50°32' E 000°19'613.2
2018-Jun-17 17:30N 50°34' E 000°28'612.8
2018-Jun-17 17:01N 50°36' E 000°37'612.3
2018-Jun-17 16:30N 50°39' E 000°45'611.8
2018-Jun-17 16:01N 50°43' E 000°52'611.0
2018-Jun-17 15:30N 50°46' E 000°59'510.4
2018-Jun-17 14:59N 50°50' E 001°06'5 9.9
2018-Jun-17 14:30N 50°52' E 001°12'5 9.4
2018-Jun-17 14:01N 50°55' E 001°18'5 9.2
2018-Jun-17 13:31N 50°59' E 001°23'510.1
2018-Jun-17 13:01N 51°02' E 001°29'611.2
2018-Jun-17 12:30N 51°06' E 001°35'612.1
2018-Jun-17 12:01N 51°10' E 001°42'294.8
2018-Jun-17 12:00N 51°12' E 001°42'511.2 240 / 241016.410.8 17.410.513.0
2018-Jun-17 11:30N 51°16' E 001°48'714.0
2018-Jun-17 11:00N 51°22' E 001°54'714.4
2018-Jun-17 10:30N 51°28' E 001°60'714.0
2018-Jun-17 10:00N 51°34' E 002°07'713.7
2018-Jun-17 09:30N 51°39' E 002°14'713.4
2018-Jun-17 09:00N 51°44' E 002°21'3322.3
2018-Jun-17 09:00N 51°42' E 002°18'12610.5 260 / 161016.110.8 16.210.9
2018-Jun-16 21:00N 53°48' E 002°18'7012.1 230 / 91009.910.8 13.811.8
2018-Jun-16 15:15N 54°31' E 000°44'311.4
2018-Jun-16 15:00N 54°33' E 000°40'1411.1
2018-Jun-16 13:42N 54°42' E 000°22'211.0
2018-Jun-16 13:30N 54°44' E 000°19'610.9
2018-Jun-16 12:59N 54°48' E 000°12'511.0
2018-Jun-16 12:30N 54°51' E 000°05'510.9
2018-Jun-16 12:00N 54°55' W 000°02'3203.8
2018-Jun-16 12:00N 54°54' W 000°06'4111.2 180 / 151010.310.8 15.5 8.712.0
2018-Jun-16 08:17N 55°24' W 000°55'412.3
2018-Jun-16 07:58N 55°27' W 001°00'612.5
2018-Jun-16 07:30N 55°31' W 001°08'612.6
2018-Jun-16 07:00N 55°35' W 001°16'612.9
2018-Jun-16 06:30N 55°40' W 001°24'713.1
2018-Jun-16 06:00N 55°44' W 001°32'713.0
2018-Jun-16 05:30N 55°49' W 001°41'713.1
2018-Jun-16 05:00N 55°53' W 001°49'713.1
2018-Jun-16 04:30N 55°58' W 001°58'612.9
2018-Jun-16 04:00N 56°01' W 002°08'812.9
2018-Jun-16 03:24N 56°04' W 002°20'512.6
2018-Jun-16 03:00N 56°06' W 002°29'611.9
2018-Jun-16 02:30N 56°07' W 002°39'611.6
2018-Jun-16 02:00N 56°06' W 002°49'611.6
2018-Jun-16 01:30N 56°03' W 002°59'611.0
2018-Jun-16 01:00N 56°03' W 003°08'5 8.2
2018-Jun-16 00:27N 56°03' W 003°17'1 0.1
2018-Jun-15 01:56N 56°02' W 003°19'1 2.3
2018-Jun-15 01:30N 56°02' W 003°17'510.3
2018-Jun-15 01:00N 56°03' W 003°09'4 8.6
2018-Jun-15 00:30N 56°07' W 003°03'1 1.8
2018-Jun-14 23:58N 56°08' W 003°04'0 0.2
2018-Jun-14 23:28N 56°08' W 003°03'0 0.0
2018-Jun-14 22:58N 56°08' W 003°03'0 0.0
2018-Jun-14 22:31N 56°08' W 003°03'0 0.0
2018-Jun-14 21:58N 56°08' W 003°03'0 0.0
2018-Jun-14 21:28N 56°08' W 003°03'0 0.1
2018-Jun-14 20:58N 56°08' W 003°03'0 0.0
2018-Jun-14 20:28N 56°08' W 003°03'0 0.0
2018-Jun-14 19:58N 56°08' W 003°03'0 0.0
2018-Jun-14 19:28N 56°08' W 003°03'0 0.0
2018-Jun-14 19:01N 56°08' W 003°03'0 0.0
2018-Jun-14 18:28N 56°08' W 003°03'0 0.0
2018-Jun-14 17:58N 56°08' W 003°03'0 0.1
2018-Jun-14 17:28N 56°08' W 003°03'0 0.1
2018-Jun-14 16:58N 56°08' W 003°03'0 0.1
2018-Jun-14 16:31N 56°08' W 003°03'0 0.0
2018-Jun-14 15:58N 56°08' W 003°03'0 0.1
2018-Jun-14 15:28N 56°08' W 003°03'0 0.1
2018-Jun-14 14:58N 56°08' W 003°03'0 0.1
2018-Jun-14 14:28N 56°08' W 003°03'0 0.0
2018-Jun-14 13:58N 56°08' W 003°03'0 0.0
2018-Jun-14 13:28N 56°08' W 003°03'0 0.1
2018-Jun-14 12:58N 56°08' W 003°03'0 0.2
2018-Jun-14 12:28N 56°08' W 003°03'0 0.1
2018-Jun-14 11:58N 56°08' W 003°03'0 0.2
2018-Jun-14 11:28N 56°08' W 003°03'0 0.0
2018-Jun-14 10:58N 56°08' W 003°03'0 0.0
2018-Jun-14 10:28N 56°08' W 003°03'0 0.0
2018-Jun-14 09:58N 56°08' W 003°03'0 0.0
2018-Jun-14 09:28N 56°08' W 003°03'0 0.0
2018-Jun-14 08:58N 56°08' W 003°03'0 0.1
2018-Jun-14 08:25N 56°08' W 003°03'0 0.0
2018-Jun-14 07:58N 56°08' W 003°03'0 0.1
2018-Jun-14 07:28N 56°08' W 003°04'0 0.0
2018-Jun-14 06:58N 56°08' W 003°04'0 0.0
2018-Jun-14 06:28N 56°08' W 003°04'0 0.0
2018-Jun-14 05:58N 56°08' W 003°04'0 0.0
2018-Jun-14 05:28N 56°08' W 003°04'0 0.0
2018-Jun-14 04:58N 56°08' W 003°04'0 0.0
2018-Jun-14 04:28N 56°08' W 003°04'0 0.0
2018-Jun-14 03:58N 56°08' W 003°04'0 0.0
2018-Jun-14 03:28N 56°08' W 003°04'0 0.1
2018-Jun-14 02:58N 56°08' W 003°04'0 0.1
2018-Jun-14 02:28N 56°08' W 003°04'0 0.1
2018-Jun-14 01:58N 56°08' W 003°03'0 0.0
2018-Jun-14 01:28N 56°08' W 003°03'0 0.0
2018-Jun-14 00:58N 56°08' W 003°04'0 0.0
2018-Jun-14 00:28N 56°08' W 003°04'0 0.0
2018-Jun-13 23:58N 56°08' W 003°04'0 0.0
2018-Jun-13 23:28N 56°08' W 003°04'0 0.0
2018-Jun-13 22:58N 56°08' W 003°04'0 0.0
2018-Jun-13 22:28N 56°08' W 003°04'0 0.0
2018-Jun-13 21:58N 56°08' W 003°04'0 0.0
2018-Jun-13 21:28N 56°08' W 003°04'0 0.0
2018-Jun-13 20:58N 56°08' W 003°04'0 0.0
2018-Jun-13 20:28N 56°08' W 003°04'0 0.0
2018-Jun-13 20:01N 56°08' W 003°04'0 0.0
2018-Jun-13 19:28N 56°08' W 003°03'0 0.0
2018-Jun-13 18:58N 56°08' W 003°03'0 0.1
2018-Jun-13 18:28N 56°08' W 003°04'0 0.0
2018-Jun-13 17:58N 56°08' W 003°04'0 0.0
2018-Jun-13 17:31N 56°08' W 003°04'0 0.0
2018-Jun-13 17:01N 56°08' W 003°04'0 0.0
2018-Jun-13 16:28N 56°08' W 003°04'0 0.0
2018-Jun-13 15:58N 56°08' W 003°04'0 0.0
2018-Jun-13 15:28N 56°08' W 003°04'0 0.0
2018-Jun-13 14:58N 56°08' W 003°04'0 0.0
2018-Jun-13 14:28N 56°08' W 003°04'0 0.0
2018-Jun-13 13:58N 56°08' W 003°04'0 0.0
2018-Jun-13 13:28N 56°08' W 003°04'0 0.1
2018-Jun-13 13:01N 56°08' W 003°03'0 0.0
2018-Jun-13 12:28N 56°08' W 003°03'0 0.0
2018-Jun-13 11:58N 56°08' W 003°03'0 0.0
2018-Jun-13 11:28N 56°08' W 003°03'0 0.1
2018-Jun-13 10:58N 56°08' W 003°03'0 0.0
2018-Jun-13 10:28N 56°08' W 003°03'0 0.8
2018-Jun-13 10:00N 56°08' W 003°03'611.3
2018-Jun-13 09:30N 56°07' W 002°53'612.6
2018-Jun-13 09:00N 56°07' W 002°41'612.6
2018-Jun-13 08:30N 56°07' W 002°30'612.5
2018-Jun-13 08:00N 56°04' W 002°20'815.0
2018-Jun-13 07:30N 56°01' W 002°08'815.3
2018-Jun-13 07:00N 55°57' W 001°56'713.8
2018-Jun-13 06:30N 55°52' W 001°47'713.5
2018-Jun-13 06:00N 55°48' W 001°39'713.3
2018-Jun-13 05:30N 55°43' W 001°30'612.8
2018-Jun-13 05:00N 55°38' W 001°22'612.7
2018-Jun-13 04:30N 55°34' W 001°14'612.8
2018-Jun-13 04:00N 55°29' W 001°06'612.5
2018-Jun-13 03:30N 55°25' W 000°58'3712.3
2018-Jun-13 00:29N 54°60' W 000°10'612.6
2018-Jun-13 00:00N 54°56' W 000°03'613.0
2018-Jun-12 23:30N 54°51' E 000°05'713.2
2018-Jun-12 23:00N 54°47' E 000°13'713.2
2018-Jun-12 22:30N 54°42' E 000°22'713.2
2018-Jun-12 21:59N 54°37' E 000°31'613.3
2018-Jun-12 21:30N 54°33' E 000°39'813.2
2018-Jun-12 20:53N 54°28' E 000°49'14210.7
2018-Jun-12 07:36N 52°22' E 002°40'410.8
2018-Jun-12 07:12N 52°18' E 002°40'410.8
2018-Jun-12 06:49N 52°14' E 002°41'410.8
2018-Jun-12 06:26N 52°10' E 002°40'510.9
2018-Jun-12 06:00N 52°05' E 002°40'511.2
2018-Jun-12 05:30N 51°59' E 002°40'611.6
2018-Jun-12 05:00N 51°54' E 002°41'611.1
2018-Jun-12 04:30N 51°49' E 002°37'611.8
2018-Jun-12 04:01N 51°44' E 002°31'612.0
2018-Jun-12 03:30N 51°39' E 002°26'612.2
2018-Jun-12 03:00N 51°34' E 002°20'612.5
2018-Jun-12 02:31N 51°29' E 002°14'612.8
2018-Jun-12 02:00N 51°23' E 002°10'612.9
2018-Jun-12 01:30N 51°17' E 002°07'612.8
2018-Jun-12 01:01N 51°12' E 002°01'713.4
2018-Jun-12 00:30N 51°09' E 001°51'713.7
2018-Jun-12 00:00N 51°04' E 001°43'714.5
2018-Jun-11 23:31N 50°59' E 001°35'714.6
2018-Jun-11 23:01N 50°53' E 001°28'714.3
2018-Jun-11 22:30N 50°47' E 001°24'713.4
2018-Jun-11 22:00N 50°41' E 001°19'612.9
2018-Jun-11 21:30N 50°36' E 001°12'612.4
2018-Jun-11 21:00N 50°32' E 001°05'612.1
2018-Jun-11 20:30N 50°28' E 000°58'612.2
2018-Jun-11 20:00N 50°26' E 000°49'612.4
2018-Jun-11 19:30N 50°24' E 000°39'612.7
2018-Jun-11 19:00N 50°22' E 000°30'713.0
2018-Jun-11 18:29N 50°20' E 000°20'613.3
2018-Jun-11 18:00N 50°19' E 000°10'713.2
2018-Jun-11 17:30N 50°17' E 000°00'613.1
2018-Jun-11 17:00N 50°15' W 000°10'713.1
2018-Jun-11 16:30N 50°13' W 000°20'613.0
2018-Jun-11 16:00N 50°12' W 000°29'612.6
2018-Jun-11 15:30N 50°10' W 000°39'612.2
2018-Jun-11 15:00N 50°08' W 000°48'611.7
2018-Jun-11 14:30N 50°06' W 000°57'511.1
2018-Jun-11 14:00N 50°06' W 001°05'510.4
2018-Jun-11 13:30N 50°05' W 001°13'5 9.9
2018-Jun-11 13:00N 50°04' W 001°21'5 9.4
2018-Jun-11 12:30N 50°03' W 001°28'5 9.3
2018-Jun-11 12:01N 50°02' W 001°35'5 9.2
2018-Jun-11 11:30N 50°00' W 001°42'4 8.9
2018-Jun-11 11:00N 49°59' W 001°49'5 9.4
2018-Jun-11 10:30N 49°58' W 001°56'5 9.9
2018-Jun-11 10:00N 49°57' W 002°03'510.6
2018-Jun-11 09:30N 49°55' W 002°11'711.4
2018-Jun-11 08:53N 49°54' W 002°22'512.1
2018-Jun-11 08:27N 49°52' W 002°30'912.7
2018-Jun-11 07:43N 49°50' W 002°44'313.0
2018-Jun-11 07:30N 49°49' W 002°48'613.0
2018-Jun-11 07:00N 49°47' W 002°57'612.8
2018-Jun-11 06:30N 49°44' W 003°06'713.1
2018-Jun-11 06:00N 49°41' W 003°15'1113.1
2018-Jun-11 05:10N 49°36' W 003°30'313.1
2018-Jun-11 04:58N 49°35' W 003°33'7213.3
2018-Jun-10 23:34N 48°59' W 005°09'112.9
2018-Jun-10 23:30N 48°59' W 005°10'810.7
2018-Jun-10 22:43N 48°55' W 005°21'2 8.6
2018-Jun-10 22:27N 48°53' W 005°24'710.2
2018-Jun-10 21:49N 48°49' W 005°32'412.2
2018-Jun-10 21:28N 48°47' W 005°37'1124.1
2018-Jun-10 21:00N 48°36' W 005°42'422.3 060 / 101012.5 0.3 14.513.2
2018-Jun-10 20:48N 48°40' W 005°43'512.3
2018-Jun-10 20:25N 48°36' W 005°47'511.5
2018-Jun-10 19:59N 48°32' W 005°50'31313.0
2018-Jun-09 20:00N 43°54' W 009°18'   360 / 141008.0 0.5 16.415.4

Dump ship's entire track history